Time;durP1;ratioP1;P1;durP2;ratioP2;P2;SDS_P1;SDS_P2;PMS_P1;PMS_P2;Temp;Humidity;BMP_temperature;BMP_pressure;BME280_temperature;BME280_humidity;BME280_pressure;Samples;Min_cycle;Max_cycle;Signal;HPM_P1;HPM_P2
2022/10/05 00:00:17;;;;;;;;;14.67;14.67;;;;;16.16;68.90;101187.75;5054011;28;45534;-64
2022/10/05 00:02:43;;;;;;;;;17.67;17.67;;;;;16.15;69.59;101189.56;5054834;28;45507;-64
2022/10/05 00:05:20;;;;;;;;;18.33;18.00;;;;;16.16;68.98;101193.06;5052494;28;45512;-65
2022/10/05 00:07:45;;;;;;;;;19.00;19.00;;;;;16.13;69.16;101186.97;5037770;28;45448;-64
2022/10/05 00:10:16;;;;;;;;;22.00;21.00;;;;;16.10;69.04;101181.81;5054617;28;45533;-64
2022/10/05 00:12:47;;;;;;;;;21.33;20.00;;;;;16.10;69.28;101184.47;5036974;28;45443;-64
2022/10/05 00:15:14;;;;;;;;;21.33;21.00;;;;;16.05;69.13;101178.53;5052333;28;45578;-64
2022/10/05 00:17:40;;;;;;;;;14.67;14.67;;;;;16.05;69.01;101182.97;5069079;28;45586;-65
2022/10/05 00:20:35;;;;;;;;;17.67;17.67;;;;;16.04;69.40;101178.59;5075107;28;46645;-64
2022/10/05 00:23:03;;;;;;;;;22.00;18.33;;;;;16.01;69.74;101170.78;5061367;28;45424;-64
2022/10/05 00:25:28;;;;;;;;;16.33;16.33;;;;;16.03;69.98;101179.53;5067525;28;45543;-63
2022/10/05 00:27:56;;;;;;;;;17.67;17.00;;;;;15.99;69.18;101173.53;5047589;28;45692;-65
2022/10/05 00:30:23;;;;;;;;;17.00;17.00;;;;;15.99;69.26;101167.38;5024134;28;48283;-64
2022/10/05 00:32:48;;;;;;;;;16.67;15.67;;;;;15.96;69.28;101160.44;5036005;28;45538;-64
2022/10/05 00:35:17;;;;;;;;;15.00;15.00;;;;;16.01;68.88;101162.81;5043336;28;45461;-65
2022/10/05 00:37:43;;;;;;;;;15.67;15.00;;;;;15.94;69.52;101156.97;5054040;28;45624;-64
2022/10/05 00:40:46;;;;;;;;;17.67;16.67;;;;;15.93;69.10;101167.66;5060580;28;46474;-65
2022/10/05 00:43:29;;;;;;;;;17.33;17.33;;;;;15.92;69.35;101160.63;5056539;28;45478;-64
2022/10/05 00:46:06;;;;;;;;;14.33;14.33;;;;;15.88;69.77;101159.94;5054947;28;45478;-65
2022/10/05 00:49:03;;;;;;;;;13.67;13.67;;;;;15.85;68.97;101147.69;5054052;28;45482;-63
2022/10/05 00:51:32;;;;;;;;;13.00;12.00;;;;;15.83;69.15;101151.34;5025091;28;45530;-64
2022/10/05 00:54:29;;;;;;;;;13.67;13.67;;;;;15.74;68.59;101144.66;5070099;28;45575;-64
2022/10/05 00:57:19;;;;;;;;;12.00;12.00;;;;;15.68;68.55;101156.44;5051918;28;45567;-64
2022/10/05 00:59:57;;;;;;;;;11.00;11.00;;;;;15.70;69.03;101161.66;5054061;28;45582;-66
2022/10/05 01:02:50;;;;;;;;;11.67;11.67;;;;;15.67;68.85;101159.13;5052082;28;45447;-65
2022/10/05 01:05:38;;;;;;;;;13.00;13.00;;;;;15.63;68.70;101158.41;5053428;28;45482;-63
2022/10/05 01:08:22;;;;;;;;;15.00;15.00;;;;;15.62;68.64;101155.84;5050474;28;45635;-65
2022/10/05 01:11:05;;;;;;;;;12.33;12.33;;;;;15.58;68.59;101152.47;5046867;28;45541;-64
2022/10/05 01:13:40;;;;;;;;;17.00;14.00;;;;;15.62;69.13;101161.16;5052682;28;46372;-64
2022/10/05 01:16:13;;;;;;;;;11.00;11.00;;;;;15.57;68.88;101150.75;5033946;28;45505;-64
2022/10/05 01:19:08;;;;;;;;;11.67;11.67;;;;;15.59;69.26;101156.84;5043407;28;45498;-64
2022/10/05 01:21:43;;;;;;;;;13.33;13.00;;;;;15.55;68.69;101154.41;5033797;28;45455;-64
2022/10/05 01:24:23;;;;;;;;;12.33;12.33;;;;;15.57;69.07;101158.69;5048222;28;45485;-63
2022/10/05 01:27:04;;;;;;;;;15.00;13.00;;;;;15.53;68.70;101154.50;5053778;28;45460;-64
2022/10/05 01:29:36;;;;;;;;;13.00;11.33;;;;;15.51;68.89;101153.69;5031966;28;46016;-64
2022/10/05 01:32:37;;;;;;;;;12.00;12.00;;;;;15.48;68.91;101158.28;5072298;28;45545;-65
2022/10/05 01:35:02;;;;;;;;;14.67;14.33;;;;;15.48;69.00;101151.19;5034821;28;46399;-65
2022/10/05 01:37:40;;;;;;;;;11.00;11.00;;;;;15.48;68.84;101148.53;5073997;28;45467;-63
2022/10/05 01:40:20;;;;;;;;;9.33;9.33;;;;;15.46;68.44;101150.41;5058727;28;45425;-64
2022/10/05 01:42:46;;;;;;;;;12.67;12.67;;;;;15.48;68.47;101140.59;5040910;28;45574;-65
2022/10/05 01:45:17;;;;;;;;;10.33;10.33;;;;;15.46;68.16;101145.09;5052459;28;46083;-64
2022/10/05 01:47:56;;;;;;;;;13.67;12.67;;;;;15.42;69.36;101138.22;5056290;28;45486;-64
2022/10/05 01:50:28;;;;;;;;;17.00;13.00;;;;;15.44;68.29;101149.59;5050141;28;45515;-64
2022/10/05 01:53:18;;;;;;;;;11.33;11.00;;;;;15.43;67.96;101137.28;5056267;28;45407;-64
2022/10/05 01:56:02;;;;;;;;;13.33;12.33;;;;;15.42;68.04;101139.09;5056249;28;45608;-64
2022/10/05 01:58:47;;;;;;;;;12.33;12.33;;;;;15.42;68.59;101132.91;5056532;28;45941;-64
2022/10/05 02:01:25;;;;;;;;;12.67;11.67;;;;;15.39;68.60;101133.06;5049904;28;45472;-64
2022/10/05 02:04:07;;;;;;;;;11.67;11.67;;;;;15.35;68.43;101124.41;5052959;28;45574;-64
2022/10/05 02:06:40;;;;;;;;;10.33;9.67;;;;;15.33;68.95;101125.41;5047389;28;46326;-64
2022/10/05 02:09:28;;;;;;;;;13.67;11.67;;;;;15.30;68.29;101129.03;5078300;28;45516;-65
2022/10/05 02:12:01;;;;;;;;;10.00;10.00;;;;;15.27;69.01;101126.53;5034314;28;45562;-64
2022/10/05 02:14:32;;;;;;;;;13.00;12.00;;;;;15.23;68.99;101117.88;5037273;28;45482;-68
2022/10/05 02:17:04;;;;;;;;;10.67;10.67;;;;;15.23;68.62;101117.88;5050937;28;46062;-65
2022/10/05 02:19:40;;;;;;;;;11.00;11.00;;;;;15.24;69.10;101114.28;5055277;28;45514;-64
2022/10/05 02:22:31;;;;;;;;;9.33;7.00;;;;;15.27;69.00;101115.09;5038005;28;45523;-64
2022/10/05 02:25:02;;;;;;;;;10.00;8.33;;;;;15.24;67.79;101103.69;5055509;28;45541;-64
2022/10/05 02:27:34;;;;;;;;;10.33;10.00;;;;;15.25;68.07;101101.91;5056568;28;46206;-64
2022/10/05 02:30:04;;;;;;;;;6.33;6.33;;;;;15.30;67.84;101101.69;5049556;28;45580;-63
2022/10/05 02:32:38;;;;;;;;;9.67;9.67;;;;;15.27;68.38;101093.88;5051897;28;45400;-64
2022/10/05 02:35:13;;;;;;;;;9.00;9.00;;;;;15.27;67.97;101093.88;5056038;28;45571;-65
2022/10/05 02:38:07;;;;;;;;;10.00;10.00;;;;;15.27;68.41;101093.88;5036791;28;47631;-64
2022/10/05 02:40:53;;;;;;;;;9.00;9.00;;;;;15.29;68.37;101094.69;5043256;28;45498;-64
2022/10/05 02:43:48;;;;;;;;;8.00;8.00;;;;;15.27;68.05;101089.44;5056574;28;45521;-64
2022/10/05 02:46:35;;;;;;;;;10.00;8.33;;;;;15.27;68.75;101080.63;5029263;28;45411;-65
2022/10/05 02:49:13;;;;;;;;;8.67;7.67;;;;;15.27;67.91;101085.94;5034095;28;48243;-65
2022/10/05 02:51:59;;;;;;;;;8.33;8.33;;;;;15.27;68.59;101076.19;5056065;28;45430;-65
2022/10/05 02:54:45;;;;;;;;;5.00;5.00;;;;;15.20;68.18;101075.59;5055168;28;45537;-64
2022/10/05 02:57:37;;;;;;;;;9.33;8.33;;;;;15.22;68.28;101073.75;5047591;28;45597;-65
2022/10/05 03:00:14;;;;;;;;;9.00;9.00;;;;;15.24;68.55;101074.56;5043578;28;46094;-65
2022/10/05 03:03:05;;;;;;;;;8.33;8.33;;;;;15.24;68.77;101073.69;5055342;28;45525;-65
2022/10/05 03:05:39;;;;;;;;;7.33;7.33;;;;;15.24;68.29;101071.91;5055114;28;45657;-65
2022/10/05 03:08:23;;;;;;;;;8.00;8.00;;;;;15.26;67.87;101079.78;5044596;28;45558;-65
2022/10/05 03:11:01;;;;;;;;;8.67;7.33;;;;;15.25;67.45;101081.56;5056462;28;45618;-65
2022/10/05 03:13:53;;;;;;;;;7.00;7.00;;;;;15.21;67.44;101074.69;5043978;28;45624;-65
2022/10/05 03:16:33;;;;;;;;;7.33;7.33;;;;;15.21;68.35;101077.34;5054354;28;45447;-64
2022/10/05 03:19:19;;;;;;;;;6.67;6.67;;;;;15.21;68.29;101079.16;5035882;28;45443;-65
2022/10/05 03:22:13;;;;;;;;;7.67;7.67;;;;;15.18;68.24;101079.28;5052097;28;46702;-65
2022/10/05 03:25:15;;;;;;;;;5.67;5.67;;;;;15.16;67.92;101074.06;5055046;28;45471;-64
2022/10/05 03:27:44;;;;;;;;;5.00;5.00;;;;;15.11;68.07;101061.94;5054111;28;45594;-64
2022/10/05 03:30:17;;;;;;;;;6.00;6.00;;;;;15.10;67.60;101062.88;5054638;28;45596;-64
2022/10/05 03:33:12;;;;;;;;;5.67;5.67;;;;;15.06;67.75;101062.16;5035720;28;46081;-64
2022/10/05 03:35:46;;;;;;;;;9.00;8.00;;;;;15.07;67.73;101061.25;5033276;28;45545;-65
2022/10/05 03:38:22;;;;;;;;;7.00;7.00;;;;;15.00;67.96;101051.84;5052627;28;45824;-64
2022/10/05 03:41:05;;;;;;;;;7.00;7.00;;;;;15.00;67.85;101055.34;5054407;28;45532;-65
2022/10/05 03:43:36;;;;;;;;;8.00;6.00;;;;;15.01;67.65;101053.56;5053504;28;45403;-64
2022/10/05 03:46:23;;;;;;;;;7.00;7.00;;;;;14.96;67.96;101050.25;5021186;28;45562;-65
2022/10/05 03:49:03;;;;;;;;;8.00;7.00;;;;;14.98;67.15;101045.75;5035236;28;45501;-64
2022/10/05 03:51:36;;;;;;;;;7.33;7.33;;;;;14.96;68.10;101045.84;5050440;28;45518;-64
2022/10/05 03:54:15;;;;;;;;;7.00;7.00;;;;;14.95;67.39;101049.41;5054153;28;45430;-64
2022/10/05 03:57:09;;;;;;;;;7.33;7.33;;;;;14.94;67.93;101047.72;5050920;28;45494;-65
2022/10/05 04:00:03;;;;;;;;;8.67;8.67;;;;;14.89;68.10;101044.41;5035254;28;45448;-66
2022/10/05 04:02:39;;;;;;;;;7.00;7.00;;;;;14.89;68.53;101048.84;5049606;28;45407;-64
2022/10/05 04:05:11;;;;;;;;;8.67;8.67;;;;;14.88;68.20;101047.13;5054224;28;45521;-64
2022/10/05 04:07:49;;;;;;;;;10.00;7.00;;;;;14.86;67.45;101051.66;5053454;28;45494;-64
2022/10/05 04:10:44;;;;;;;;;8.67;7.33;;;;;14.85;68.48;101058.69;5052551;28;45430;-65
2022/10/05 04:13:41;;;;;;;;;7.67;7.67;;;;;14.80;68.33;101051.00;5036297;28;45416;-64
2022/10/05 04:16:30;;;;;;;;;9.67;9.67;;;;;14.79;68.28;101056.34;5053811;28;46294;-65
2022/10/05 04:18:58;;;;;;;;;9.00;9.00;;;;;14.77;68.17;101045.81;5054274;28;45478;-64
2022/10/05 04:22:02;;;;;;;;;9.67;9.67;;;;;14.75;68.03;101050.34;5054144;28;45490;-64
2022/10/05 04:24:40;;;;;;;;;10.00;9.00;;;;;14.70;67.96;101038.25;5029057;28;45383;-65
2022/10/05 04:27:15;;;;;;;;;8.33;8.33;;;;;14.67;68.08;101043.66;5050119;28;45585;-65
2022/10/05 04:29:50;;;;;;;;;9.00;9.00;;;;;14.62;68.85;101040.38;5036367;28;45435;-65
2022/10/05 04:32:36;;;;;;;;;9.33;8.67;;;;;14.58;68.31;101037.00;5054278;28;45479;-64
2022/10/05 04:35:22;;;;;;;;;7.00;7.00;;;;;14.57;68.45;101044.06;5050648;28;45541;-64
2022/10/05 04:38:09;;;;;;;;;9.33;8.67;;;;;14.54;69.29;101041.56;5054038;28;46555;-65
2022/10/05 04:41:12;;;;;;;;;8.67;8.67;;;;;14.52;69.01;101040.78;5048007;28;45629;-65
2022/10/05 04:43:52;;;;;;;;;10.33;9.00;;;;;14.53;68.80;101038.97;4993645;28;45524;-63
2022/10/05 04:47:00;;;;;;;;;11.33;11.33;;;;;14.44;68.70;101037.56;5044309;28;45573;-64
2022/10/05 04:50:03;;;;;;;;;10.00;10.00;;;;;14.48;68.90;101033.00;5043903;28;46662;-65
2022/10/05 04:52:57;;;;;;;;;9.00;8.00;;;;;14.46;69.21;101030.44;5053315;28;45520;-64
2022/10/05 04:55:48;;;;;;;;;9.00;8.00;;;;;14.45;69.36;101035.78;5051522;28;45590;-64
2022/10/05 04:58:25;;;;;;;;;8.33;8.00;;;;;14.46;68.42;101030.44;5045310;28;45454;-64
2022/10/05 05:01:00;;;;;;;;;7.00;7.00;;;;;14.46;68.42;101024.28;5053143;28;45514;-64
2022/10/05 05:03:56;;;;;;;;;8.33;8.33;;;;;14.44;68.63;101020.84;5032229;28;45371;-64
2022/10/05 05:06:55;;;;;;;;;10.67;10.67;;;;;14.42;69.07;101020.03;5041620;28;45499;-64
2022/10/05 05:10:07;;;;;;;;;11.33;9.67;;;;;14.34;69.07;101009.78;5052663;28;45574;-66
2022/10/05 05:12:44;;;;;;;;;7.67;7.67;;;;;14.42;68.88;101012.97;4996952;28;45477;-65
2022/10/05 05:15:27;;;;;;;;;9.00;9.00;;;;;14.39;69.20;101010.47;5046050;28;45713;-65
2022/10/05 05:17:56;;;;;;;;;7.00;7.00;;;;;14.35;69.16;101006.25;5047998;28;45434;-65
2022/10/05 05:20:49;;;;;;;;;8.00;8.00;;;;;14.32;69.71;101015.19;5077488;28;45426;-65
2022/10/05 05:23:39;;;;;;;;;8.00;8.00;;;;;14.29;69.03;101006.50;5056208;28;45562;-65
2022/10/05 05:26:20;;;;;;;;;9.33;8.00;;;;;14.30;68.74;101013.53;5051675;28;45469;-65
2022/10/05 05:29:05;;;;;;;;;9.33;9.33;;;;;14.29;68.80;100999.44;5043464;28;45498;-65
2022/10/05 05:31:56;;;;;;;;;9.33;9.33;;;;;14.24;69.46;101003.19;5077972;28;45576;-64
2022/10/05 05:35:18;;;;;;;;;9.67;9.67;;;;;14.24;69.00;101000.53;5077671;28;45568;-65
2022/10/05 05:38:09;;;;;;;;;8.67;8.33;;;;;14.22;68.82;100995.34;5014664;28;45471;-65
2022/10/05 05:40:56;;;;;;;;;8.33;8.33;;;;;14.21;68.63;100995.41;5029398;28;45474;-67
2022/10/05 05:43:31;;;;;;;;;9.00;9.00;;;;;14.22;69.15;100994.50;5051683;28;45482;-64
2022/10/05 05:46:11;;;;;;;;;9.33;9.00;;;;;14.09;69.37;100973.84;5049216;28;46290;-65
2022/10/05 05:48:40;;;;;;;;;9.00;9.00;;;;;14.19;69.57;100994.63;5052206;28;45523;-66
2022/10/05 05:51:11;;;;;;;;;8.00;8.00;;;;;14.19;69.78;100991.97;5039253;28;45509;-66
2022/10/05 05:53:44;;;;;;;;;6.00;6.00;;;;;14.21;69.25;100995.41;5039057;28;45522;-64
2022/10/05 05:56:16;;;;;;;;;8.33;8.33;;;;;14.22;69.46;100994.50;5037435;28;45478;-66
2022/10/05 05:58:50;;;;;;;;;7.33;7.33;;;;;14.21;69.42;100995.41;5052802;28;45486;-67
2022/10/05 06:01:34;;;;;;;;;10.33;10.33;;;;;14.21;69.46;100992.75;5036943;28;45377;-64
2022/10/05 06:04:11;;;;;;;;;7.00;6.00;;;;;14.19;69.74;100998.13;5037664;28;45569;-65
2022/10/05 06:06:43;;;;;;;;;10.00;9.00;;;;;14.09;69.49;100988.88;5037923;28;45446;-65
2022/10/05 06:09:37;;;;;;;;;8.00;8.00;;;;;14.13;69.31;100991.31;5053122;28;45956;-66
2022/10/05 06:12:18;;;;;;;;;8.00;8.00;;;;;14.11;69.29;101005.53;5038814;28;45711;-62
2022/10/05 06:14:51;;;;;;;;;7.67;6.33;;;;;14.11;68.77;100997.59;5019995;28;45661;-63
2022/10/05 06:17:57;;;;;;;;;9.00;9.00;;;;;14.08;68.94;101001.25;5050160;28;45541;-65
2022/10/05 06:20:50;;;;;;;;;12.00;9.00;;;;;14.10;68.99;100996.75;4967149;28;45614;-63
2022/10/05 06:23:24;;;;;;;;;9.33;8.00;;;;;14.09;69.69;100996.81;4976989;28;45564;-62
2022/10/05 06:26:18;;;;;;;;;10.00;9.33;;;;;14.09;69.59;100988.88;5024276;28;45636;-63
2022/10/05 06:28:51;;;;;;;;;10.67;10.00;;;;;14.09;69.17;100989.72;5005602;28;46429;-63
2022/10/05 06:31:31;;;;;;;;;8.67;8.67;;;;;14.09;69.07;100994.16;5035229;28;45440;-63
2022/10/05 06:34:17;;;;;;;;;11.00;10.00;;;;;14.08;69.78;100995.09;5035624;28;45482;-64
2022/10/05 06:36:49;;;;;;;;;10.67;9.33;;;;;13.98;69.85;100991.97;5035598;28;45404;-63
2022/10/05 06:39:28;;;;;;;;;11.00;11.00;;;;;14.05;69.48;100997.84;5035117;28;45533;-63
2022/10/05 06:42:31;;;;;;;;;12.00;11.33;;;;;14.05;69.73;100995.19;5033380;28;45502;-63
2022/10/05 06:45:06;;;;;;;;;12.67;12.67;;;;;14.02;69.42;100997.97;5034198;28;45554;-63
2022/10/05 06:47:45;;;;;;;;;12.33;12.33;;;;;14.01;69.65;100994.50;5034149;28;45582;-63
2022/10/05 06:50:35;;;;;;;;;16.33;15.33;;;;;14.06;69.39;100994.28;5035123;28;45406;-64
2022/10/05 06:53:13;;;;;;;;;13.33;13.33;;;;;14.08;70.16;100995.09;5035446;28;45534;-62
2022/10/05 06:56:05;;;;;;;;;20.00;18.67;;;;;14.08;70.05;100987.16;5035423;28;45474;-64
2022/10/05 06:58:52;;;;;;;;;18.67;16.67;;;;;14.13;69.70;100985.16;5035276;28;45490;-64
2022/10/05 07:01:57;;;;;;;;;19.33;19.33;;;;;14.18;69.60;100992.88;5035201;28;45486;-62
2022/10/05 07:04:28;;;;;;;;;18.33;18.33;;;;;14.17;69.38;100986.75;5004958;28;45565;-63
2022/10/05 07:07:13;;;;;;;;;19.67;18.00;;;;;14.16;69.72;100982.38;5035083;28;45666;-63
2022/10/05 07:09:47;;;;;;;;;19.67;18.00;;;;;14.15;69.75;100978.84;5034433;28;45507;-63
2022/10/05 07:12:31;;;;;;;;;20.00;17.33;;;;;14.21;70.10;100984.81;5035465;28;45562;-63
2022/10/05 07:15:18;;;;;;;;;19.33;19.33;;;;;14.23;70.11;100986.47;5034881;28;45525;-66
2022/10/05 07:17:52;;;;;;;;;20.33;17.67;;;;;14.25;70.53;101000.50;5035099;28;45445;-66
2022/10/05 07:20:26;;;;;;;;;18.33;17.33;;;;;14.25;70.06;100994.34;5034969;28;45573;-62
2022/10/05 07:23:07;;;;;;;;;24.00;23.33;;;;;14.33;70.18;100997.50;5033185;28;47343;-65
2022/10/05 07:26:02;;;;;;;;;19.33;19.33;;;;;14.36;69.81;101000.00;5034472;28;45470;-63
2022/10/05 07:28:27;;;;;;;;;20.00;20.00;;;;;14.44;69.92;101005.81;5034850;28;45577;-63
2022/10/05 07:31:31;;;;;;;;;19.33;19.33;;;;;14.42;70.57;101010.31;5034804;28;45370;-62
2022/10/05 07:34:24;;;;;;;;;16.00;14.00;;;;;14.45;70.03;101010.16;4968454;28;45602;-64
2022/10/05 07:39:51;;;;;;;;;15.00;14.33;;;;;14.57;69.95;101016.75;5034903;28;45604;-63
2022/10/05 07:42:37;;;;;;;;;12.00;12.00;;;;;14.60;70.19;101024.56;5033741;28;45478;-63
2022/10/05 07:45:39;;;;;;;;;18.00;16.00;;;;;14.54;69.90;101014.25;5034389;28;45445;-63
2022/10/05 07:48:34;;;;;;;;;14.00;14.00;;;;;14.63;69.16;101021.75;5034446;28;45462;-63
2022/10/05 07:51:08;;;;;;;;;17.00;16.67;;;;;14.64;70.26;101020.84;5034034;28;45407;-63
2022/10/05 07:53:43;;;;;;;;;14.33;14.33;;;;;14.68;69.95;101021.56;5034629;28;45430;-63
2022/10/05 07:56:20;;;;;;;;;10.33;10.33;;;;;14.70;69.95;101017.06;5034339;28;45391;-63
2022/10/05 07:58:50;;;;;;;;;13.00;13.00;;;;;14.75;69.81;101025.66;5034111;28;45568;-63
2022/10/05 08:01:21;;;;;;;;;12.67;12.67;;;;;14.77;69.55;101029.94;5034361;28;45497;-63
2022/10/05 08:04:03;;;;;;;;;14.67;14.00;;;;;14.81;69.52;101033.31;5049815;28;45494;-63
2022/10/05 08:06:46;;;;;;;;;14.00;13.00;;;;;14.90;70.43;101030.22;5034022;28;46034;-64
2022/10/05 08:09:34;;;;;;;;;11.33;10.00;;;;;14.82;69.48;101002.38;5032825;28;45869;-64
2022/10/05 08:12:06;;;;;;;;;11.33;10.33;;;;;15.03;69.74;101038.47;5050364;28;45430;-64
2022/10/05 08:14:45;;;;;;;;;10.33;10.33;;;;;15.03;70.06;101025.22;5034031;28;45552;-64
2022/10/05 08:17:36;;;;;;;;;10.33;10.33;;;;;15.07;70.35;101017.97;5034000;28;45587;-64
2022/10/05 08:20:17;;;;;;;;;7.33;7.33;;;;;15.22;70.08;101023.41;5033659;28;45519;-64
2022/10/05 08:22:53;;;;;;;;;9.33;8.33;;;;;15.19;70.11;101004.16;5034246;28;45624;-65
2022/10/05 08:25:27;;;;;;;;;7.00;7.00;;;;;15.33;70.26;101022.03;5033977;28;45502;-63
2022/10/05 08:28:04;;;;;;;;;6.00;6.00;;;;;15.40;69.52;101023.47;5033755;28;45483;-64
2022/10/05 08:30:34;;;;;;;;;7.67;7.67;;;;;15.44;69.26;101023.22;5032728;28;45393;-65
2022/10/05 08:33:15;;;;;;;;;8.67;8.33;;;;;15.48;70.31;101039.84;5033978;28;45492;-65
2022/10/05 08:35:59;;;;;;;;;6.67;6.67;;;;;15.53;69.25;101040.50;5049254;28;45496;-65
2022/10/05 08:38:31;;;;;;;;;8.00;7.00;;;;;15.63;69.95;101040.88;5033278;28;46095;-65
2022/10/05 08:41:21;;;;;;;;;9.00;9.00;;;;;15.68;69.99;101045.06;5033396;28;45557;-66
2022/10/05 08:43:49;;;;;;;;;8.00;8.00;;;;;15.76;68.94;101035.88;5033661;28;45596;-63
2022/10/05 08:46:32;;;;;;;;;8.00;8.00;;;;;15.79;69.73;101047.16;5033499;28;45434;-63
2022/10/05 08:49:32;;;;;;;;;6.00;6.00;;;;;15.85;69.58;101046.88;5033464;28;45439;-65
2022/10/05 08:52:21;;;;;;;;;6.00;6.00;;;;;15.87;69.59;101038.84;5032427;28;45590;-64
2022/10/05 08:55:16;;;;;;;;;6.67;4.00;;;;;15.92;70.11;101043.91;5036976;28;45489;-64
2022/10/05 08:58:02;;;;;;;;;9.00;8.00;;;;;15.95;69.28;101043.75;5037516;28;45501;-64
2022/10/05 09:01:02;;;;;;;;;8.33;8.00;;;;;16.00;69.85;101050.53;5037106;28;45637;-64
2022/10/05 09:03:49;;;;;;;;;8.33;8.33;;;;;16.04;70.05;101057.44;5036903;28;45361;-64
2022/10/05 09:06:20;;;;;;;;;8.33;8.33;;;;;16.04;69.50;101054.78;5036102;28;45424;-65
2022/10/05 09:09:23;;;;;;;;;7.67;7.67;;;;;16.12;69.28;101051.72;5037181;28;45581;-65
2022/10/05 09:12:13;;;;;;;;;9.67;9.00;;;;;16.16;69.12;101050.63;5037537;28;46355;-65
2022/10/05 09:15:16;;;;;;;;;8.67;8.67;;;;;16.20;69.20;101052.19;5036688;28;45550;-65
2022/10/05 09:18:06;;;;;;;;;8.00;7.00;;;;;16.21;69.44;101059.22;4955715;28;45428;-65
2022/10/05 09:21:08;;;;;;;;;8.33;7.33;;;;;16.23;70.02;101054.69;4955760;28;45454;-64
2022/10/05 09:23:39;;;;;;;;;8.67;8.33;;;;;16.26;69.75;101053.66;5026218;28;46217;-64
2022/10/05 09:26:10;;;;;;;;;9.67;8.00;;;;;16.24;69.50;101042.28;5036256;28;45577;-64
2022/10/05 09:29:03;;;;;;;;;10.00;10.00;;;;;16.35;68.82;101059.34;5035286;28;45471;-65
2022/10/05 09:32:07;;;;;;;;;8.67;8.67;;;;;16.41;68.38;101057.31;5036713;28;45510;-64
2022/10/05 09:34:52;;;;;;;;;9.67;9.67;;;;;16.43;68.95;101058.94;5036330;28;46226;-64
2022/10/05 09:37:52;;;;;;;;;7.67;7.67;;;;;16.44;68.40;101057.16;5036550;28;45579;-66
2022/10/05 09:40:35;;;;;;;;;6.67;5.67;;;;;16.47;68.03;101072.91;5036926;28;45440;-63
2022/10/05 09:43:25;;;;;;;;;6.00;6.00;;;;;16.49;68.35;101071.03;5034917;28;45536;-64
2022/10/05 09:46:16;;;;;;;;;6.33;6.33;;;;;16.43;67.95;101060.75;5036424;28;46123;-65
2022/10/05 09:48:47;;;;;;;;;7.00;7.00;;;;;16.50;67.30;101063.00;5036358;28;45376;-64
2022/10/05 09:51:22;;;;;;;;;7.67;7.00;;;;;16.53;67.21;101067.31;5036296;28;45489;-64
2022/10/05 09:53:50;;;;;;;;;5.67;5.00;;;;;16.57;67.17;101075.00;5036300;28;45555;-65
2022/10/05 09:56:33;;;;;;;;;7.33;7.33;;;;;16.64;67.30;101062.28;5035955;28;45508;-64
2022/10/05 09:59:16;;;;;;;;;6.33;6.33;;;;;16.71;66.44;101062.78;5036087;28;45427;-64
2022/10/05 10:01:55;;;;;;;;;8.67;7.00;;;;;16.72;66.76;101054.75;5035982;28;45501;-65
2022/10/05 10:04:38;;;;;;;;;5.00;5.00;;;;;16.74;66.07;101052.88;5034288;28;45699;-65
2022/10/05 10:07:10;;;;;;;;;6.33;6.00;;;;;16.77;66.89;101067.81;5034604;28;47213;-64
2022/10/05 10:10:06;;;;;;;;;4.00;4.00;;;;;16.73;64.87;101071.53;5036034;28;45472;-64
2022/10/05 10:12:40;;;;;;;;;4.00;4.00;;;;;16.72;65.75;101052.09;5036852;28;45498;-65
2022/10/05 10:15:08;;;;;;;;;6.00;6.00;;;;;16.73;64.14;101050.28;5051727;28;45573;-64
2022/10/05 10:18:00;;;;;;;;;6.67;6.00;;;;;16.76;63.83;101051.00;5035863;28;45505;-64
2022/10/05 10:20:32;;;;;;;;;5.00;5.00;;;;;16.83;63.39;101048.03;5035593;28;45533;-65
2022/10/05 10:23:07;;;;;;;;;5.67;5.67;;;;;16.90;63.22;101044.09;5036028;28;45469;-64
2022/10/05 10:26:00;;;;;;;;;6.00;5.00;;;;;16.87;63.04;101044.25;5035453;28;45396;-65
2022/10/05 10:28:53;;;;;;;;;6.00;6.00;;;;;16.88;63.39;101049.50;5034173;28;48252;-64
2022/10/05 10:31:24;;;;;;;;;4.00;3.67;;;;;16.91;62.09;101059.09;5035704;28;45515;-64
2022/10/05 10:34:37;;;;;;;;;5.00;5.00;;;;;16.94;63.05;101043.84;5035733;28;45390;-64
2022/10/05 10:37:40;;;;;;;;;5.33;5.00;;;;;17.00;62.92;101056.78;4999021;28;45507;-64
2022/10/05 10:40:24;;;;;;;;;6.00;6.00;;;;;17.06;63.18;101047.66;5041420;28;46307;-63
2022/10/05 10:43:05;;;;;;;;;6.00;6.00;;;;;17.11;63.11;101047.38;5052491;28;45668;-63
2022/10/05 10:45:49;;;;;;;;;12.00;11.00;;;;;17.17;63.44;101041.72;5044281;28;45487;-63
2022/10/05 10:48:17;;;;;;;;;11.33;11.00;;;;;17.29;62.79;101035.72;5035734;28;45478;-63
2022/10/05 10:51:05;;;;;;;;;10.00;10.00;;;;;17.36;62.40;101034.44;5055179;28;46291;-63
2022/10/05 10:54:07;;;;;;;;;8.00;6.67;;;;;17.41;62.42;101035.03;5055577;28;45573;-64
2022/10/05 10:57:01;;;;;;;;;6.00;6.00;;;;;17.44;62.64;101029.53;5048442;28;45628;-64
2022/10/05 10:59:56;;;;;;;;;11.67;9.67;;;;;17.49;62.26;101017.75;5054578;28;45558;-65
2022/10/05 11:02:31;;;;;;;;;6.33;6.00;;;;;17.52;62.13;101022.94;5044944;28;45747;-63
2022/10/05 11:05:03;;;;;;;;;6.33;5.00;;;;;17.57;61.94;101029.69;5055452;28;45439;-63
2022/10/05 11:07:49;;;;;;;;;6.00;5.00;;;;;17.55;61.55;101022.75;5054257;28;45410;-63
2022/10/05 11:10:52;;;;;;;;;9.67;9.67;;;;;17.46;61.75;101021.44;5054416;28;45414;-64
2022/10/05 11:13:51;;;;;;;;;4.00;4.00;;;;;17.45;61.66;101009.97;5043401;28;46086;-64
2022/10/05 11:16:35;;;;;;;;;5.00;5.00;;;;;17.46;62.51;100997.50;5049758;28;45790;-64
2022/10/05 11:19:01;;;;;;;;;5.00;5.00;;;;;17.51;61.78;101002.56;5047831;28;45713;-66
2022/10/05 11:21:42;;;;;;;;;6.00;5.00;;;;;17.54;62.10;100997.06;5034472;28;45711;-65
2022/10/05 11:24:22;;;;;;;;;8.00;6.33;;;;;17.54;61.77;100995.25;5049840;28;45491;-64
2022/10/05 11:27:23;;;;;;;;;5.33;5.33;;;;;17.60;62.25;100994.09;5016344;28;45512;-63
2022/10/05 11:30:16;;;;;;;;;7.00;7.00;;;;;17.67;61.78;100984.78;5027244;28;46018;-63
2022/10/05 11:33:30;;;;;;;;;5.33;5.33;;;;;17.73;61.53;100976.44;5031906;28;45519;-63
2022/10/05 11:36:43;;;;;;;;;6.67;6.67;;;;;17.78;61.30;100976.16;5029722;28;46733;-63
2022/10/05 11:39:29;;;;;;;;;5.00;5.00;;;;;17.83;61.02;100974.97;4973675;28;45928;-65
2022/10/05 11:42:07;;;;;;;;;6.67;5.67;;;;;17.86;60.83;100985.44;5001238;28;45560;-63
2022/10/05 11:45:10;;;;;;;;;6.00;6.00;;;;;17.85;61.33;100985.53;5035034;28;45467;-64
2022/10/05 11:48:25;;;;;;;;;4.00;4.00;;;;;17.92;61.75;100980.69;5033513;28;45455;-63
2022/10/05 11:51:15;;;;;;;;;3.33;3.33;;;;;17.95;61.15;100989.38;4985286;28;45676;-63
2022/10/05 11:54:01;;;;;;;;;5.00;5.00;;;;;18.00;61.25;100989.94;5054173;28;45451;-64
2022/10/05 11:56:57;;;;;;;;;4.33;4.00;;;;;18.08;60.51;100978.81;5054659;28;45477;-64
2022/10/05 11:59:38;;;;;;;;;3.00;3.00;;;;;18.14;60.61;100981.13;5036204;28;46711;-63
2022/10/05 12:02:13;;;;;;;;;3.00;3.00;;;;;18.28;60.38;100978.47;5052353;28;45380;-64
2022/10/05 12:05:00;;;;;;;;;3.00;3.00;;;;;18.50;60.41;100974.47;5053396;28;45506;-64
2022/10/05 12:07:51;;;;;;;;;4.00;4.00;;;;;18.71;59.11;100977.59;5053344;28;45425;-63
2022/10/05 12:11:00;;;;;;;;;3.67;3.67;;;;;18.85;59.46;100968.75;5054355;28;46504;-64
2022/10/05 12:13:37;;;;;;;;;4.33;4.33;;;;;18.84;59.38;100967.03;5054920;28;45472;-64
2022/10/05 12:16:17;;;;;;;;;5.00;4.00;;;;;18.81;59.80;100970.75;5054425;28;45602;-64
2022/10/05 12:18:55;;;;;;;;;7.33;6.33;;;;;19.01;59.32;100969.47;5054390;28;45509;-63
2022/10/05 12:21:30;;;;;;;;;6.00;5.00;;;;;19.17;59.15;100969.34;5054126;28;46732;-63
2022/10/05 12:24:23;;;;;;;;;19.33;19.33;;;;;19.26;58.83;100974.03;5054249;28;45536;-64
2022/10/05 12:26:59;;;;;;;;;15.67;13.33;;;;;19.34;58.75;100971.75;5053961;28;45494;-63
2022/10/05 12:29:58;;;;;;;;;6.67;6.00;;;;;19.44;58.51;100974.66;5054373;28;45520;-63
2022/10/05 12:32:32;;;;;;;;;2.33;2.33;;;;;19.40;58.08;100976.69;5054170;28;45800;-64
2022/10/05 12:35:10;;;;;;;;;5.00;5.00;;;;;19.45;58.34;100965.72;5054169;28;45765;-64